Time;durP1;ratioP1;P1;durP2;ratioP2;P2;SDS_P1;SDS_P2;PMS_P1;PMS_P2;Temp;Humidity;BMP_temperature;BMP_pressure;BME280_temperature;BME280_humidity;BME280_pressure;Samples;Min_cycle;Max_cycle;Signal;HPM_P1;HPM_P2
2021/04/18 00:02:08;;;;;;;12.32;4.90;;;20.30;34.10;;;;;;5043051;28;20040;-45
2021/04/18 00:04:35;;;;;;;12.57;4.65;;;20.30;34.70;;;;;;5045513;28;20052;-43
2021/04/18 00:07:02;;;;;;;12.63;4.85;;;20.30;34.00;;;;;;5046719;28;20094;-44
2021/04/18 00:09:29;;;;;;;11.90;4.85;;;20.30;34.00;;;;;;5052114;28;20483;-45
2021/04/18 00:11:57;;;;;;;12.00;4.72;;;20.30;33.90;;;;;;5051676;28;20052;-46
2021/04/18 00:14:26;;;;;;;12.82;5.05;;;20.30;34.00;;;;;;5051732;28;20184;-46
2021/04/18 00:16:53;;;;;;;12.30;4.60;;;20.40;34.00;;;;;;5038380;28;20467;-47
2021/04/18 00:19:20;;;;;;;12.85;5.32;;;20.40;34.10;;;;;;5031540;28;20088;-44
2021/04/18 00:21:48;;;;;;;16.23;5.53;;;20.40;34.10;;;;;;5031762;28;20041;-46
2021/04/18 00:24:15;;;;;;;13.07;5.20;;;20.50;34.10;;;;;;5031884;28;20038;-43
2021/04/18 00:26:43;;;;;;;11.77;5.03;;;20.50;34.00;;;;;;5031971;28;20037;-45
2021/04/18 00:29:09;;;;;;;10.45;4.68;;;20.50;33.90;;;;;;5031398;28;20058;-46
2021/04/18 00:31:36;;;;;;;9.82;4.63;;;20.50;33.70;;;;;;5031928;28;20570;-46
2021/04/18 00:34:02;;;;;;;11.40;4.70;;;20.50;33.70;;;;;;5031705;28;20041;-46
2021/04/18 00:36:30;;;;;;;13.48;5.13;;;20.50;33.70;;;;;;5050148;28;20044;-43
2021/04/18 00:38:57;;;;;;;12.98;4.60;;;20.50;33.60;;;;;;5051765;28;20048;-45
2021/04/18 00:41:24;;;;;;;14.70;4.88;;;20.50;33.60;;;;;;5050097;28;20037;-44
2021/04/18 00:43:51;;;;;;;11.27;5.18;;;20.50;33.50;;;;;;5051647;28;20102;-45
2021/04/18 00:46:18;;;;;;;12.85;5.28;;;20.50;33.40;;;;;;5033973;28;20083;-44
2021/04/18 00:48:45;;;;;;;;;;;20.50;33.50;;;;;;5031997;28;20041;-42
2021/04/18 00:51:14;;;;;;;10.05;4.85;;;20.50;33.60;;;;;;5028859;28;19929;-44
2021/04/18 00:53:41;;;;;;;12.57;5.43;;;20.50;33.60;;;;;;5034091;28;20431;-42
2021/04/18 00:56:10;;;;;;;12.20;5.05;;;20.50;33.60;;;;;;5035519;28;20049;-41
2021/04/18 00:58:38;;;;;;;12.30;5.13;;;20.50;33.70;;;;;;5035369;28;20041;-41
2021/04/18 01:01:06;;;;;;;14.98;5.18;;;20.60;33.70;;;;;;5036122;28;20060;-41
2021/04/18 01:03:35;;;;;;;12.18;5.13;;;20.60;33.80;;;;;;5053914;28;20414;-40
2021/04/18 01:06:05;;;;;;;13.68;5.25;;;20.60;33.60;;;;;;5027895;28;20045;-42
2021/04/18 01:08:39;;;;;;;;;;;20.60;33.70;;;;;;5050999;28;20509;-44
2021/04/18 01:11:06;;;;;;;9.93;4.50;;;20.60;33.70;;;;;;5043130;28;19925;-44
2021/04/18 01:13:33;;;;;;;14.10;4.55;;;20.70;33.50;;;;;;5027862;28;20573;-47
2021/04/18 01:16:01;;;;;;;9.90;4.90;;;20.60;33.50;;;;;;5030787;28;20123;-45
2021/04/18 01:18:27;;;;;;;;;;;20.70;34.00;;;;;;5022844;28;20061;-46
2021/04/18 01:21:10;;;;;;;10.48;4.70;;;20.70;33.50;;;;;;5032518;28;19921;-45
2021/04/18 01:23:48;;;;;;;12.30;4.88;;;20.80;33.50;;;;;;5034976;28;20045;-44
2021/04/18 01:26:44;;;;;;;10.82;4.65;;;20.80;33.50;;;;;;5016906;28;20523;-47
2021/04/18 01:29:11;;;;;;;11.93;5.30;;;20.80;33.40;;;;;;5034892;28;20049;-46
2021/04/18 01:31:37;;;;;;;;;;;20.80;33.30;;;;;;5035294;28;20512;-43
2021/04/18 01:34:11;;;;;;;9.50;4.50;;;20.80;33.30;;;;;;5044015;28;19921;-43
2021/04/18 01:36:39;;;;;;;11.70;4.78;;;20.80;33.20;;;;;;5034662;28;20045;-47
2021/04/18 01:39:06;;;;;;;10.60;4.38;;;20.80;33.20;;;;;;5033812;28;20045;-42
2021/04/18 01:41:33;;;;;;;12.45;4.85;;;20.80;33.20;;;;;;5034775;28;20046;-44
2021/04/18 01:43:59;;;;;;;13.10;5.13;;;20.80;33.70;;;;;;5033449;28;20126;-44
2021/04/18 01:46:28;;;;;;;10.75;4.57;;;20.80;33.10;;;;;;5034489;28;20054;-45
2021/04/18 01:48:54;;;;;;;10.05;4.50;;;20.80;33.00;;;;;;5034047;28;20045;-42
2021/04/18 01:51:24;;;;;;;12.65;4.68;;;20.80;32.90;;;;;;5034603;28;20528;-44
2021/04/18 01:53:52;;;;;;;8.63;4.50;;;20.80;33.00;;;;;;5033350;28;20055;-46
2021/04/18 01:56:19;;;;;;;12.75;5.47;;;20.90;33.00;;;;;;5033363;28;20504;-43
2021/04/18 01:58:47;;;;;;;9.98;4.47;;;20.80;32.90;;;;;;5033220;28;20125;-44
2021/04/18 02:01:27;;;;;;;11.80;5.35;;;20.90;33.00;;;;;;5041521;28;20124;-45
2021/04/18 02:03:56;;;;;;;13.07;4.97;;;20.80;32.80;;;;;;5043054;28;20553;-46
2021/04/18 02:06:23;;;;;;;11.95;5.07;;;20.90;32.90;;;;;;5034613;28;20103;-45
2021/04/18 02:09:00;;;;;;;13.77;4.82;;;20.90;32.80;;;;;;5033228;28;20523;-45
2021/04/18 02:11:39;;;;;;;12.07;4.90;;;20.80;32.80;;;;;;5032963;28;20046;-44
2021/04/18 02:14:11;;;;;;;9.50;4.63;;;20.80;32.80;;;;;;5034336;28;20488;-46
2021/04/18 02:16:48;;;;;;;12.18;4.63;;;20.90;32.80;;;;;;5032252;28;20049;-45
2021/04/18 02:19:17;;;;;;;10.05;4.45;;;20.80;32.70;;;;;;5033883;28;20061;-46
2021/04/18 02:21:44;;;;;;;;;;;20.90;32.70;;;;;;5034511;28;20444;-45
2021/04/18 02:24:14;;;;;;;15.05;4.75;;;20.90;32.90;;;;;;5033083;28;20020;-45
2021/04/18 02:26:42;;;;;;;11.00;4.82;;;20.90;32.80;;;;;;5033825;28;20092;-46
2021/04/18 02:29:12;;;;;;;12.55;4.72;;;20.90;32.70;;;;;;5033783;28;20112;-45
2021/04/18 02:31:59;;;;;;;18.67;5.15;;;20.90;32.70;;;;;;5043424;28;20037;-44
2021/04/18 02:34:27;;;;;;;15.25;5.35;;;20.90;32.70;;;;;;5035960;28;20507;-45
2021/04/18 02:36:55;;;;;;;12.55;5.07;;;20.90;32.60;;;;;;5035807;28;20522;-45
2021/04/18 02:39:22;;;;;;;12.68;5.18;;;20.90;32.70;;;;;;5033811;28;20077;-45
2021/04/18 02:42:05;;;;;;;15.50;5.03;;;20.90;32.70;;;;;;5111404;27;20371;-46
2021/04/18 02:44:33;;;;;;;10.48;4.80;;;21.00;32.60;;;;;;5108522;28;20083;-46
2021/04/18 02:47:00;;;;;;;13.02;4.63;;;21.00;32.50;;;;;;5108157;28;20059;-45
2021/04/18 02:49:27;;;;;;;15.63;4.65;;;21.00;32.40;;;;;;5109871;28;20048;-46
2021/04/18 02:51:55;;;;;;;12.35;4.60;;;21.00;32.40;;;;;;5108180;28;20044;-44
2021/04/18 02:54:22;;;;;;;;;;;21.00;32.40;;;;;;5110372;28;20044;-48
2021/04/18 02:56:54;;;;;;;13.13;4.43;;;21.00;32.50;;;;;;5108511;28;19924;-45
2021/04/18 02:59:21;;;;;;;14.43;4.63;;;21.00;32.40;;;;;;5100198;28;20040;-46
2021/04/18 03:01:48;;;;;;;12.10;4.53;;;21.00;32.40;;;;;;5095255;28;20036;-46
2021/04/18 03:04:15;;;;;;;15.73;4.90;;;21.00;32.40;;;;;;5089998;28;20055;-43
2021/04/18 03:06:42;;;;;;;11.10;4.88;;;21.00;32.40;;;;;;5087700;28;20418;-43
2021/04/18 03:09:09;;;;;;;12.88;4.30;;;21.00;32.40;;;;;;5103870;28;20071;-44
2021/04/18 03:11:41;;;;;;;15.85;5.32;;;21.00;32.40;;;;;;5109215;28;20044;-45
2021/04/18 03:14:20;;;;;;;13.77;5.00;;;21.00;32.40;;;;;;5107559;28;20052;-44
2021/04/18 03:16:48;;;;;;;13.80;4.97;;;21.00;32.20;;;;;;5109478;28;20085;-45
2021/04/18 03:19:15;;;;;;;9.88;4.45;;;21.00;32.30;;;;;;5107682;28;20052;-44
2021/04/18 03:21:45;;;;;;;11.77;4.38;;;21.00;32.10;;;;;;5108174;28;20485;-46
2021/04/18 03:24:12;;;;;;;13.50;4.68;;;21.00;32.30;;;;;;5109120;28;20055;-44
2021/04/18 03:26:39;;;;;;;12.32;4.80;;;20.90;32.20;;;;;;5079782;28;20047;-43
2021/04/18 03:29:06;;;;;;;14.07;5.28;;;21.00;32.10;;;;;;5089279;28;20075;-45
2021/04/18 03:31:34;;;;;;;13.52;5.20;;;20.90;32.10;;;;;;5104143;28;20048;-44
2021/04/18 03:34:05;;;;;;;15.35;5.63;;;20.90;32.20;;;;;;5087348;28;20048;-46
2021/04/18 03:36:33;;;;;;;15.20;4.60;;;21.00;32.10;;;;;;5106387;28;20048;-46
2021/04/18 03:39:12;;;;;;;10.25;5.10;;;21.00;32.20;;;;;;5107771;28;20398;-45
2021/04/18 03:41:40;;;;;;;12.10;4.90;;;21.00;32.10;;;;;;5107085;28;20052;-45
2021/04/18 03:44:06;;;;;;;;;;;21.00;32.00;;;;;;5108619;28;20131;-45
2021/04/18 03:46:34;;;;;;;11.93;5.53;;;21.00;32.20;;;;;;5107656;28;19927;-46
2021/04/18 03:49:01;;;;;;;11.65;4.88;;;21.00;32.10;;;;;;5107011;28;20047;-46
2021/04/18 03:51:48;;;;;;;11.23;5.07;;;21.00;32.10;;;;;;5103331;28;20544;-47
2021/04/18 03:54:18;;;;;;;17.00;5.32;;;21.00;32.10;;;;;;5093818;28;20059;-46
2021/04/18 03:56:45;;;;;;;13.07;5.13;;;21.00;32.10;;;;;;5079942;28;20529;-46
2021/04/18 03:59:12;;;;;;;10.57;5.32;;;21.00;32.10;;;;;;5073256;28;20051;-47
2021/04/18 04:01:39;;;;;;;10.90;4.68;;;21.00;32.10;;;;;;5075953;28;20136;-46
2021/04/18 04:04:10;;;;;;;12.82;5.43;;;21.00;32.00;;;;;;5090207;28;20044;-46
2021/04/18 04:06:41;;;;;;;12.18;5.38;;;21.00;32.10;;;;;;5066697;28;20049;-48
2021/04/18 04:09:08;;;;;;;14.50;5.20;;;21.00;32.00;;;;;;5074939;28;20061;-47
2021/04/18 04:11:41;;;;;;;10.88;5.40;;;21.00;32.10;;;;;;5094255;28;20040;-44
2021/04/18 04:14:20;;;;;;;17.33;5.43;;;21.00;31.90;;;;;;5094340;28;20463;-45
2021/04/18 04:16:50;;;;;;;12.40;5.07;;;21.10;31.90;;;;;;5093131;28;20123;-46
2021/04/18 04:19:21;;;;;;;9.90;5.22;;;21.10;32.00;;;;;;5093125;28;20494;-44
2021/04/18 04:22:06;;;;;;;14.70;5.30;;;21.10;31.90;;;;;;5094700;28;20052;-44
2021/04/18 04:24:53;;;;;;;11.23;5.63;;;21.10;31.90;;;;;;5067752;28;20143;-46
2021/04/18 04:27:21;;;;;;;12.27;4.93;;;21.10;31.90;;;;;;5051453;28;20144;-44
2021/04/18 04:29:50;;;;;;;13.07;5.22;;;21.10;31.90;;;;;;5051540;28;20083;-45
2021/04/18 04:32:17;;;;;;;14.93;5.57;;;21.10;31.90;;;;;;5051902;28;20060;-44
2021/04/18 04:34:45;;;;;;;14.45;5.28;;;21.20;32.00;;;;;;5051657;28;20622;-45
2021/04/18 04:37:12;;;;;;;;;;;21.10;31.90;;;;;;5052084;28;20060;-46
2021/04/18 04:39:38;;;;;;;14.05;5.68;;;21.10;31.90;;;;;;5066516;28;19921;-46
2021/04/18 04:42:05;;;;;;;;;;;21.10;31.90;;;;;;5054827;28;20134;-44
2021/04/18 04:44:32;;;;;;;10.82;5.18;;;21.10;31.90;;;;;;5071568;28;19966;-46
2021/04/18 04:46:59;;;;;;;;;;;21.10;31.90;;;;;;5071705;28;20098;-45
2021/04/18 04:49:26;;;;;;;15.63;5.53;;;21.10;31.90;;;;;;5071524;28;19927;-45
2021/04/18 04:51:52;;;;;;;12.90;5.60;;;21.10;31.90;;;;;;5071415;28;20102;-43
2021/04/18 04:54:19;;;;;;;;;;;21.10;31.90;;;;;;5070274;28;20534;-44
2021/04/18 04:56:45;;;;;;;12.73;5.40;;;21.10;32.00;;;;;;5050892;28;20102;-45
2021/04/18 04:59:12;;;;;;;13.57;5.72;;;21.10;31.90;;;;;;5051090;28;20080;-45
2021/04/18 05:01:38;;;;;;;;;;;21.20;32.00;;;;;;5049953;28;20080;-44
2021/04/18 05:04:06;;;;;;;13.13;5.82;;;21.10;31.90;;;;;;5054425;28;20007;-44
2021/04/18 05:06:32;;;;;;;12.23;5.97;;;21.10;32.00;;;;;;5073153;28;20064;-41
2021/04/18 05:08:59;;;;;;;12.20;5.57;;;21.10;31.90;;;;;;5072731;28;20045;-45
2021/04/18 05:11:26;;;;;;;9.63;5.45;;;21.10;31.90;;;;;;5059889;28;20094;-43
2021/04/18 05:13:52;;;;;;;14.07;5.13;;;21.20;32.00;;;;;;5073511;28;20045;-46
2021/04/18 05:16:19;;;;;;;;;;;21.20;32.00;;;;;;5073500;28;20063;-46
2021/04/18 05:18:46;;;;;;;16.92;5.90;;;21.20;32.00;;;;;;5073486;28;19932;-48
2021/04/18 05:21:14;;;;;;;10.40;4.72;;;21.20;32.60;;;;;;5073704;28;20043;-48
2021/04/18 05:23:40;;;;;;;15.77;5.25;;;21.20;32.00;;;;;;5063137;28;20107;-41
2021/04/18 05:26:08;;;;;;;8.43;4.63;;;21.30;32.00;;;;;;5064350;28;20084;-44
2021/04/18 05:28:35;;;;;;;10.63;5.25;;;21.40;32.10;;;;;;5045104;28;20179;-46
2021/04/18 05:31:05;;;;;;;14.13;5.97;;;21.40;32.00;;;;;;5081438;28;20045;-44
2021/04/18 05:33:32;;;;;;;13.48;5.43;;;21.40;32.10;;;;;;5067078;28;20491;-43
2021/04/18 05:36:00;;;;;;;14.85;5.32;;;21.40;32.20;;;;;;5061880;28;20049;-44
2021/04/18 05:38:27;;;;;;;13.75;5.50;;;21.40;32.30;;;;;;5065856;28;20052;-45
2021/04/18 05:40:54;;;;;;;;;;;21.50;32.40;;;;;;5072781;28;20071;-46
2021/04/18 05:43:20;;;;;;;12.45;5.88;;;21.50;32.60;;;;;;5092800;28;19959;-44
2021/04/18 05:45:47;;;;;;;15.15;6.13;;;21.50;32.70;;;;;;5092350;28;20075;-44
2021/04/18 05:48:14;;;;;;;;;;;21.50;33.20;;;;;;5093261;28;20055;-45
2021/04/18 05:50:42;;;;;;;11.07;5.50;;;21.50;33.20;;;;;;5091989;28;20484;-47
2021/04/18 05:53:09;;;;;;;12.32;5.68;;;21.60;33.30;;;;;;5063392;28;20056;-46
2021/04/18 05:55:36;;;;;;;;;;;21.60;33.50;;;;;;5072361;28;20119;-44
2021/04/18 05:58:07;;;;;;;12.20;5.70;;;21.50;33.50;;;;;;5080895;28;19920;-45
2021/04/18 06:00:34;;;;;;;14.27;6.97;;;21.50;33.60;;;;;;5086762;28;20044;-47
2021/04/18 06:03:01;;;;;;;14.40;6.10;;;21.50;33.70;;;;;;5068812;28;20056;-44
2021/04/18 06:05:28;;;;;;;12.95;6.10;;;21.50;33.80;;;;;;5072249;28;20049;-46
2021/04/18 06:07:56;;;;;;;13.38;5.72;;;21.50;33.80;;;;;;5063756;28;20529;-46
2021/04/18 06:10:23;;;;;;;;;;;21.60;34.00;;;;;;5092540;28;20040;-41
2021/04/18 06:12:49;;;;;;;10.85;5.60;;;21.50;33.80;;;;;;5080264;28;19952;-43
2021/04/18 06:15:16;;;;;;;9.98;5.53;;;21.40;33.90;;;;;;5036571;28;20061;-45
2021/04/18 06:17:43;;;;;;;;;;;21.40;33.90;;;;;;5054291;28;20056;-45
2021/04/18 06:20:11;;;;;;;22.48;4.72;;;21.40;33.80;;;;;;5054389;28;19928;-53
2021/04/18 06:22:37;;;;;;;13.77;3.97;;;21.60;37.10;;;;;;5051831;28;20090;-54
2021/04/18 06:25:05;;;;;;;16.65;4.28;;;21.30;34.80;;;;;;5057061;28;20461;-54
2021/04/18 06:27:32;;;;;;;12.10;4.28;;;21.10;34.60;;;;;;5048922;28;20068;-56
2021/04/18 06:29:59;;;;;;;26.23;4.18;;;21.00;34.40;;;;;;5064336;28;20052;-47
2021/04/18 07:20:54;;;;;;;43.75;7.80;;;23.80;30.90;;;;;;5067946;28;20646;-59
2021/04/18 07:23:30;;;;;;;22.35;5.68;;;23.60;31.10;;;;;;5069047;28;20087;-69
2021/04/18 07:26:25;;;;;;;27.25;6.88;;;23.70;36.60;;;;;;5121918;27;735658;-62
2021/04/18 07:29:10;;;;;;;36.00;7.72;;;23.20;32.00;;;;;;5118067;28;20043;-68
2021/04/18 07:31:37;;;;;;;28.17;7.23;;;23.00;32.30;;;;;;5120707;27;20032;-69
2021/04/18 07:34:36;;;;;;;36.58;8.73;;;22.90;32.40;;;;;;5101785;27;20874;-69
2021/04/18 07:37:14;;;;;;;32.40;8.63;;;22.90;32.40;;;;;;5083794;28;20468;-68
2021/04/18 07:39:57;;;;;;;42.67;8.75;;;22.90;32.30;;;;;;5088799;28;20379;-69
2021/04/18 07:42:33;;;;;;;33.80;9.52;;;23.00;32.20;;;;;;5088954;28;20051;-69
2021/04/18 07:45:03;;;;;;;41.35;9.88;;;23.00;32.20;;;;;;5088759;28;20386;-69
2021/04/18 07:47:33;;;;;;;51.38;11.60;;;23.10;32.00;;;;;;5088973;28;20506;-69
2021/04/18 07:50:03;;;;;;;42.78;9.90;;;23.40;31.70;;;;;;5088191;28;20067;-69
2021/04/18 07:52:31;;;;;;;41.70;10.27;;;23.30;31.50;;;;;;5072546;28;20056;-68
2021/04/18 07:54:59;;;;;;;41.22;10.40;;;23.30;31.60;;;;;;5070193;28;20411;-71
2021/04/18 07:57:26;;;;;;;44.17;10.85;;;23.30;31.50;;;;;;5088019;28;20044;-68
2021/04/18 07:59:52;;;;;;;;;;;23.30;31.50;;;;;;5088410;28;20041;-70
2021/04/18 08:02:20;;;;;;;36.47;10.15;;;23.30;31.60;;;;;;5088446;28;20339;-70
2021/04/18 08:04:51;;;;;;;37.47;9.98;;;23.30;31.50;;;;;;5088135;28;20085;-69
2021/04/18 08:07:18;;;;;;;49.03;10.68;;;23.30;31.40;;;;;;5090580;28;20044;-69
2021/04/18 08:09:46;;;;;;;39.60;10.40;;;23.30;31.50;;;;;;5092873;28;20047;-68
2021/04/18 08:12:18;;;;;;;50.20;10.70;;;23.30;31.40;;;;;;5092174;28;20094;-70
2021/04/18 08:14:47;;;;;;;47.35;10.88;;;23.30;31.50;;;;;;5088759;28;20048;-69
2021/04/18 08:17:15;;;;;;;40.63;11.18;;;23.30;31.50;;;;;;5088730;28;20090;-70
2021/04/18 08:19:55;;;;;;;43.42;10.95;;;23.30;31.40;;;;;;5088627;28;20056;-69
2021/04/18 08:22:22;;;;;;;44.78;11.23;;;23.30;31.30;;;;;;5091305;28;20060;-69
2021/04/18 08:25:06;;;;;;;43.92;11.00;;;23.30;31.40;;;;;;5089690;28;20109;-69
2021/04/18 08:28:12;;;;;;;38.95;11.15;;;23.30;31.40;;;;;;5086450;28;20108;-71
2021/04/18 08:31:05;;;;;;;38.90;10.90;;;23.30;31.40;;;;;;5078257;28;20048;-70
2021/04/18 08:33:38;;;;;;;42.88;10.50;;;23.40;31.30;;;;;;5086119;28;20409;-69
2021/04/18 08:36:29;;;;;;;36.63;10.55;;;23.40;31.30;;;;;;5086873;28;20044;-69
2021/04/18 08:39:05;;;;;;;41.88;10.82;;;23.40;31.30;;;;;;5088078;28;20056;-69
2021/04/18 08:41:40;;;;;;;37.90;11.10;;;23.40;31.30;;;;;;5087644;28;20044;-71
2021/04/18 08:44:26;;;;;;;33.30;9.88;;;23.40;31.20;;;;;;5083792;28;20048;-70
2021/04/18 08:47:02;;;;;;;38.47;10.25;;;23.40;31.20;;;;;;5074088;28;20032;-69
2021/04/18 08:49:33;;;;;;;;;;;23.40;31.20;;;;;;5074266;28;20039;-68
2021/04/18 08:52:05;;;;;;;34.72;10.48;;;23.40;31.30;;;;;;5073941;28;19924;-70
2021/04/18 08:54:34;;;;;;;38.35;10.43;;;23.40;31.20;;;;;;5074053;28;20040;-70
2021/04/18 08:57:13;;;;;;;31.58;10.15;;;23.40;31.20;;;;;;5073551;28;20044;-67
2021/04/18 08:59:41;;;;;;;33.80;10.50;;;23.40;31.20;;;;;;5073550;28;20052;-71
2021/04/18 09:02:13;;;;;;;36.35;10.55;;;23.40;31.20;;;;;;5072767;28;20079;-70
2021/04/18 09:04:46;;;;;;;32.90;9.25;;;23.40;31.20;;;;;;5072656;28;20094;-69
2021/04/18 09:07:16;;;;;;;31.63;9.13;;;23.40;31.20;;;;;;5072747;28;20071;-69
2021/04/18 09:09:43;;;;;;;28.98;8.65;;;23.40;31.20;;;;;;5073575;28;20045;-70
2021/04/18 09:12:11;;;;;;;27.75;8.80;;;23.40;31.20;;;;;;5073451;28;20107;-69
2021/04/18 09:14:56;;;;;;;26.60;8.77;;;23.50;31.20;;;;;;5073400;28;20052;-69
2021/04/18 09:17:28;;;;;;;33.75;9.02;;;23.40;31.10;;;;;;5073194;28;20041;-69
2021/04/18 09:20:00;;;;;;;34.78;8.88;;;23.40;31.10;;;;;;5072063;28;20060;-69
2021/04/18 09:22:30;;;;;;;26.40;8.95;;;23.40;31.00;;;;;;5073709;28;20041;-69
2021/04/18 09:25:09;;;;;;;36.15;8.00;;;23.40;31.20;;;;;;5073217;28;20044;-69
2021/04/18 09:27:39;;;;;;;33.42;8.35;;;23.40;31.10;;;;;;5073204;28;20068;-69
2021/04/18 09:30:16;;;;;;;31.38;7.90;;;23.50;31.10;;;;;;5059674;28;20086;-68
2021/04/18 09:32:48;;;;;;;27.45;8.30;;;23.50;31.10;;;;;;5072596;28;20052;-68
2021/04/18 09:35:20;;;;;;;25.15;8.52;;;23.50;31.00;;;;;;5073032;28;20046;-67
2021/04/18 09:37:56;;;;;;;30.30;8.05;;;23.50;31.00;;;;;;5073607;28;20059;-68
2021/04/18 09:40:24;;;;;;;;;;;23.50;30.90;;;;;;5073564;28;20059;-69
2021/04/18 09:42:53;;;;;;;24.55;7.97;;;23.60;31.00;;;;;;5073102;28;20367;-69
2021/04/18 09:45:25;;;;;;;24.20;7.30;;;23.50;30.90;;;;;;5072482;28;20049;-69
2021/04/18 09:48:12;;;;;;;27.73;7.60;;;23.50;31.00;;;;;;5072877;28;20135;-68
2021/04/18 09:50:44;;;;;;;22.85;7.25;;;23.50;31.00;;;;;;5072939;28;20117;-69
2021/04/18 09:53:22;;;;;;;23.15;7.50;;;23.50;31.00;;;;;;5072658;28;20427;-69
2021/04/18 09:56:05;;;;;;;23.25;7.28;;;23.50;30.90;;;;;;5072074;28;20076;-69
2021/04/18 09:58:35;;;;;;;23.60;7.55;;;23.50;30.80;;;;;;5072727;28;20399;-67
2021/04/18 10:01:04;;;;;;;24.02;6.57;;;23.60;30.90;;;;;;5071899;28;20044;-70
2021/04/18 10:03:38;;;;;;;25.73;7.13;;;23.60;30.70;;;;;;5061363;28;20052;-68
2021/04/18 10:06:08;;;;;;;22.23;7.15;;;23.60;30.80;;;;;;5071576;28;20044;-69
2021/04/18 10:08:37;;;;;;;28.30;6.53;;;23.60;30.70;;;;;;5072624;28;20395;-69
2021/04/18 10:11:09;;;;;;;19.90;6.47;;;23.60;30.70;;;;;;5072361;28;20044;-68
2021/04/18 10:13:39;;;;;;;20.38;7.10;;;23.60;30.70;;;;;;5072793;28;20049;-69
2021/04/18 10:16:33;;;;;;;20.38;6.32;;;23.60;30.80;;;;;;5072121;28;20398;-69
2021/04/18 10:19:17;;;;;;;;;;;23.60;30.70;;;;;;5072624;28;20037;-69
2021/04/18 10:22:00;;;;;;;17.48;5.57;;;23.60;30.60;;;;;;5060172;28;19920;-69
2021/04/18 10:24:48;;;;;;;17.13;5.72;;;23.60;30.60;;;;;;5072237;28;20036;-70
2021/04/18 10:27:22;;;;;;;18.42;5.32;;;23.60;30.60;;;;;;5071948;28;20114;-70
2021/04/18 10:29:50;;;;;;;17.25;5.53;;;23.60;30.50;;;;;;5071107;28;20510;-68
2021/04/18 10:32:18;;;;;;;17.40;5.28;;;23.70;30.50;;;;;;5072154;28;20044;-71
2021/04/18 10:34:50;;;;;;;17.38;6.03;;;23.70;30.50;;;;;;5072264;28;20036;-69
2021/04/18 10:37:18;;;;;;;16.77;5.70;;;23.70;30.40;;;;;;5072145;28;20449;-68
2021/04/18 10:39:45;;;;;;;13.63;4.88;;;23.70;30.40;;;;;;5071859;28;20041;-69
2021/04/18 10:42:12;;;;;;;14.48;4.85;;;23.70;30.30;;;;;;5072021;28;20086;-69
2021/04/18 10:44:40;;;;;;;16.10;4.95;;;23.70;30.30;;;;;;5071574;28;20041;-69
2021/04/18 10:47:16;;;;;;;11.68;4.78;;;23.70;30.20;;;;;;5071497;28;20131;-69
2021/04/18 10:49:49;;;;;;;11.32;4.50;;;23.80;30.30;;;;;;5071623;28;20493;-68
2021/04/18 10:52:17;;;;;;;15.95;5.40;;;23.80;30.30;;;;;;5071285;28;20406;-69
2021/04/18 10:54:43;;;;;;;15.38;4.75;;;23.80;30.20;;;;;;5069909;28;20052;-69
2021/04/18 10:57:10;;;;;;;14.30;5.00;;;23.80;30.20;;;;;;5070904;28;20040;-69
2021/04/18 10:59:37;;;;;;;12.02;4.35;;;23.80;30.20;;;;;;5071363;28;20048;-69
2021/04/18 11:02:06;;;;;;;10.20;4.20;;;23.80;30.10;;;;;;5071676;28;20048;-70
2021/04/18 11:04:33;;;;;;;12.85;4.40;;;23.80;30.30;;;;;;5071815;28;20041;-69
2021/04/18 11:07:02;;;;;;;14.70;4.80;;;23.80;30.20;;;;;;5071325;28;20048;-70
2021/04/18 11:09:29;;;;;;;15.73;5.05;;;23.80;30.10;;;;;;5071506;28;20097;-68
2021/04/18 11:11:56;;;;;;;11.95;4.70;;;23.80;30.10;;;;;;5069998;28;20048;-67
2021/04/18 11:14:23;;;;;;;11.90;4.25;;;23.80;30.00;;;;;;5071021;28;20035;-67
2021/04/18 11:16:49;;;;;;;13.02;3.88;;;23.90;30.00;;;;;;5071551;28;20040;-66
2021/04/18 11:19:16;;;;;;;12.70;4.03;;;23.90;30.10;;;;;;5069940;28;20060;-68
2021/04/18 11:21:43;;;;;;;12.02;4.50;;;24.00;30.00;;;;;;5071449;28;20045;-67
2021/04/18 11:24:10;;;;;;;11.10;4.00;;;23.90;30.20;;;;;;5071500;28;20394;-67
2021/04/18 11:26:37;;;;;;;11.65;4.53;;;23.90;30.40;;;;;;5071292;28;20158;-67
2021/04/18 11:29:04;;;;;;;11.80;4.28;;;23.80;30.30;;;;;;5070990;28;20413;-66
2021/04/18 11:31:30;;;;;;;11.45;4.20;;;23.80;30.20;;;;;;4718984;28;10000270;-68
2021/04/18 11:33:58;;;;;;;12.18;3.80;;;23.80;30.20;;;;;;5068956;28;20052;-67
2021/04/18 11:36:25;;;;;;;9.63;3.97;;;23.80;30.10;;;;;;5069122;28;20052;-66
2021/04/18 11:39:07;;;;;;;10.70;3.42;;;23.80;30.20;;;;;;5069109;28;20052;-69
2021/04/18 11:41:35;;;;;;;9.32;3.90;;;23.80;30.20;;;;;;5067485;28;20048;-68
2021/04/18 11:44:14;;;;;;;11.85;4.20;;;23.80;30.20;;;;;;5055593;28;20049;-65
2021/04/18 11:46:45;;;;;;;12.10;3.70;;;23.80;30.30;;;;;;5069103;28;20043;-63
2021/04/18 11:49:15;;;;;;;9.80;3.72;;;23.90;30.60;;;;;;5069205;28;20033;-69
2021/04/18 11:51:43;;;;;;;11.25;3.88;;;23.90;30.70;;;;;;5067508;28;20102;-70
2021/04/18 11:54:10;;;;;;;9.82;3.80;;;23.90;30.60;;;;;;5069223;28;20499;-65
2021/04/18 11:56:37;;;;;;;9.30;3.75;;;23.90;30.80;;;;;;5068293;28;20133;-67
2021/04/18 11:59:05;;;;;;;8.82;3.30;;;23.90;30.70;;;;;;5068771;28;20051;-64
2021/04/18 12:01:33;;;;;;;9.23;3.25;;;23.90;30.70;;;;;;5068741;28;20486;-65
2021/04/18 12:04:01;;;;;;;7.25;3.10;;;23.90;30.60;;;;;;5067340;28;20067;-63
2021/04/18 12:06:28;;;;;;;8.52;3.45;;;23.90;30.80;;;;;;5069082;28;20046;-66
2021/04/18 12:08:55;;;;;;;12.75;3.33;;;23.90;30.60;;;;;;5069110;28;20498;-69
2021/04/18 12:11:21;;;;;;;11.35;3.78;;;23.90;30.60;;;;;;5067968;28;20083;-65
2021/04/18 12:13:48;;;;;;;7.43;3.13;;;23.90;30.60;;;;;;5068801;28;20625;-65
2021/04/18 12:16:15;;;;;;;10.93;3.47;;;23.90;30.70;;;;;;5068714;28;20029;-65
2021/04/18 12:18:43;;;;;;;8.02;3.30;;;23.90;30.80;;;;;;5069093;28;20044;-69
2021/04/18 12:21:10;;;;;;;10.18;3.95;;;23.80;30.70;;;;;;5071429;28;20194;-67
2021/04/18 12:23:37;;;;;;;7.90;3.10;;;23.90;30.70;;;;;;5072803;28;20667;-66
2021/04/18 12:26:05;;;;;;;9.85;3.20;;;23.90;31.10;;;;;;5072071;28;20059;-69
2021/04/18 12:28:31;;;;;;;10.05;3.20;;;23.90;30.70;;;;;;5072377;28;20095;-67
2021/04/18 12:30:58;;;;;;;14.20;2.97;;;23.90;30.80;;;;;;5071378;28;20072;-70
2021/04/18 12:33:25;;;;;;;11.88;3.15;;;23.90;30.80;;;;;;5071741;28;20059;-65
2021/04/18 12:35:52;;;;;;;7.35;3.05;;;24.00;30.80;;;;;;5072058;28;20102;-71
2021/04/18 12:38:18;;;;;;;;;;;23.90;30.70;;;;;;5071548;28;20076;-62
2021/04/18 12:40:45;;;;;;;8.80;3.17;;;24.00;30.80;;;;;;5071684;28;19927;-67
2021/04/18 12:43:12;;;;;;;13.68;2.92;;;24.00;30.90;;;;;;5070587;28;20418;-70
2021/04/18 12:45:38;;;;;;;8.68;2.83;;;24.00;31.00;;;;;;5071248;28;20060;-71
2021/04/18 12:48:06;;;;;;;11.45;3.10;;;24.00;30.90;;;;;;5072326;28;20045;-67
2021/04/18 12:50:39;;;;;;;9.73;3.00;;;24.00;30.90;;;;;;5071100;28;20041;-71
2021/04/18 12:53:06;;;;;;;8.32;3.08;;;24.00;30.70;;;;;;5070540;28;20076;-73
2021/04/18 12:55:32;;;;;;;14.32;3.15;;;24.00;30.90;;;;;;5070808;28;20461;-71
2021/04/18 12:57:59;;;;;;;9.57;3.13;;;23.90;31.00;;;;;;5071697;28;20450;-69
2021/04/18 13:00:26;;;;;;;6.60;2.72;;;23.90;31.10;;;;;;5071722;28;20059;-63
2021/04/18 13:02:53;;;;;;;9.27;3.22;;;23.80;31.10;;;;;;5062523;28;20059;-69
2021/04/18 13:05:20;;;;;;;6.18;2.50;;;23.80;31.20;;;;;;5055306;28;21305;-70
2021/04/18 13:07:47;;;;;;;8.70;2.90;;;23.80;31.20;;;;;;5061046;28;20044;-69
2021/04/18 13:10:13;;;;;;;7.35;2.88;;;23.70;31.20;;;;;;5071203;28;20052;-65
2021/04/18 13:12:42;;;;;;;4.88;2.40;;;23.70;31.30;;;;;;5072227;28;20105;-69
2021/04/18 13:15:16;;;;;;;6.35;2.83;;;23.70;31.30;;;;;;5067848;28;20033;-66
2021/04/18 13:17:43;;;;;;;6.22;2.70;;;23.70;31.30;;;;;;5068472;28;20397;-66
2021/04/18 13:20:11;;;;;;;5.70;2.70;;;23.60;31.30;;;;;;5061204;28;20054;-68
2021/04/18 13:22:39;;;;;;;6.65;2.60;;;23.60;31.40;;;;;;5056743;28;20075;-66
2021/04/18 13:25:08;;;;;;;6.85;2.60;;;23.60;31.20;;;;;;5061733;28;20044;-68
2021/04/18 13:27:35;;;;;;;8.32;2.70;;;23.60;31.20;;;;;;5065080;28;20372;-65
2021/04/18 13:30:04;;;;;;;6.53;2.72;;;23.60;31.30;;;;;;5071324;28;20177;-65
2021/04/18 13:32:45;;;;;;;7.85;2.70;;;23.60;31.30;;;;;;5070080;28;20068;-67
2021/04/18 13:35:13;;;;;;;5.90;2.80;;;23.50;31.30;;;;;;5071159;28;20411;-70
2021/04/18 13:37:40;;;;;;;4.57;2.42;;;23.50;31.40;;;;;;5070669;28;20384;-69
2021/04/18 13:40:08;;;;;;;5.32;2.60;;;23.50;31.40;;;;;;5070900;28;20479;-69
2021/04/18 13:42:35;;;;;;;4.97;2.40;;;23.50;31.40;;;;;;5071247;28;20048;-66
2021/04/18 13:45:04;;;;;;;6.72;2.80;;;23.50;31.30;;;;;;5070662;28;20045;-69
2021/04/18 13:47:31;;;;;;;5.90;2.75;;;23.40;31.30;;;;;;5070882;28;20044;-66